createdAt,value
2022-12-28T00:01:18.555Z,92.20
2022-12-28T00:03:48.212Z,92.27
2022-12-28T00:06:16.505Z,92.14
2022-12-28T00:08:44.093Z,92.56
2022-12-28T00:11:20.413Z,93.03
2022-12-28T00:13:54.644Z,92.51
2022-12-28T00:16:26.598Z,92.38
2022-12-28T00:18:55.953Z,92.40
2022-12-28T00:21:23.539Z,92.03
2022-12-28T00:23:52.163Z,92.76
2022-12-28T00:26:20.568Z,91.99
2022-12-28T00:28:48.552Z,92.34
2022-12-28T00:31:16.688Z,92.06
2022-12-28T00:33:44.744Z,92.17
2022-12-28T00:36:15.513Z,92.03
2022-12-28T00:38:43.525Z,91.70
2022-12-28T00:41:11.965Z,92.15
2022-12-28T00:43:39.709Z,91.65
2022-12-28T00:46:07.302Z,90.94
2022-12-28T00:48:35.484Z,91.03
2022-12-28T00:51:03.904Z,90.51
2022-12-28T00:53:32.743Z,90.80
2022-12-28T00:56:07.939Z,90.37
2022-12-28T00:58:35.689Z,90.03
2022-12-28T01:01:03.475Z,91.14
2022-12-28T01:03:31.726Z,90.40
2022-12-28T01:05:59.416Z,90.21
2022-12-28T01:08:26.896Z,90.71
2022-12-28T01:10:55.964Z,90.20
2022-12-28T01:13:23.458Z,90.47
2022-12-28T01:15:50.958Z,89.75
2022-12-28T01:18:20.284Z,89.70
2022-12-28T01:20:47.759Z,89.99
2022-12-28T01:23:16.624Z,89.82
2022-12-28T01:25:44.159Z,89.62
2022-12-28T01:28:12.945Z,89.79
2022-12-28T01:30:40.416Z,89.29
2022-12-28T01:33:07.866Z,89.50
2022-12-28T01:35:35.795Z,89.90
2022-12-28T01:38:03.304Z,89.73
2022-12-28T01:40:30.809Z,87.89
2022-12-28T01:42:58.309Z,88.70
2022-12-28T01:45:28.740Z,88.17
2022-12-28T01:47:57.292Z,88.42
2022-12-28T01:50:26.594Z,88.79
2022-12-28T01:52:57.123Z,88.67
2022-12-28T01:55:27.744Z,88.64
2022-12-28T01:57:57.462Z,88.54
2022-12-28T02:00:26.757Z,88.46
2022-12-28T02:02:57.981Z,88.80
2022-12-28T02:05:28.423Z,90.27
2022-12-28T02:07:59.671Z,90.40
2022-12-28T02:10:41.399Z,91.59
2022-12-28T02:13:12.638Z,93.12
2022-12-28T02:15:40.237Z,94.31
2022-12-28T02:18:09.359Z,95.83
2022-12-28T02:20:44.527Z,95.88
2022-12-28T02:23:32.298Z,96.51
2022-12-28T02:26:28.064Z,96.68
2022-12-28T02:29:10.210Z,97.75
2022-12-28T02:31:43.033Z,98.28
2022-12-28T02:34:17.562Z,97.94
2022-12-28T02:36:48.478Z,97.43
2022-12-28T02:39:20.218Z,98.11
2022-12-28T02:41:48.952Z,98.78
2022-12-28T02:44:38.993Z,98.59
2022-12-28T02:47:23.997Z,98.88
2022-12-28T02:50:09.741Z,98.38
2022-12-28T02:53:04.132Z,98.56
2022-12-28T02:55:57.751Z,99.19
2022-12-28T02:58:37.291Z,99.67
2022-12-28T03:01:14.701Z,99.26
2022-12-28T03:03:48.292Z,99.10
2022-12-28T03:06:37.618Z,99.74
2022-12-28T03:09:12.331Z,99.82
2022-12-28T03:11:44.714Z,100.00
2022-12-28T03:14:21.138Z,100.00
2022-12-28T03:17:11.361Z,100.00
2022-12-28T03:20:02.308Z,99.91
2022-12-28T03:22:49.070Z,99.18
2022-12-28T03:25:38.272Z,99.28
2022-12-28T03:28:25.351Z,99.29
2022-12-28T03:31:07.084Z,99.90
2022-12-28T03:33:41.918Z,100.00
2022-12-28T03:36:11.833Z,99.46
2022-12-28T03:38:49.547Z,99.42
2022-12-28T03:41:25.126Z,98.90
2022-12-28T03:43:55.665Z,98.60
2022-12-28T03:46:25.864Z,98.29
2022-12-28T03:48:55.153Z,97.40
2022-12-28T03:51:24.010Z,97.66
2022-12-28T03:53:53.022Z,97.94
2022-12-28T03:56:24.560Z,97.34
2022-12-28T03:58:54.918Z,97.19
2022-12-28T04:01:25.409Z,97.18
2022-12-28T04:03:53.152Z,97.60
2022-12-28T04:06:22.076Z,96.79
2022-12-28T04:08:50.373Z,96.14
2022-12-28T04:11:17.960Z,95.45
2022-12-28T04:13:49.998Z,95.77
2022-12-28T04:16:19.186Z,95.03
2022-12-28T04:18:47.281Z,95.19
2022-12-28T04:21:15.867Z,95.04
2022-12-28T04:23:54.073Z,94.80
2022-12-28T04:26:23.063Z,93.77
2022-12-28T04:28:53.394Z,93.94
2022-12-28T04:31:32.755Z,95.05
2022-12-28T04:34:07.161Z,94.55
2022-12-28T04:36:39.317Z,95.45
2022-12-28T04:39:12.849Z,95.20
2022-12-28T04:41:41.023Z,96.53
2022-12-28T04:44:08.484Z,97.12
2022-12-28T04:46:35.974Z,96.86
2022-12-28T04:49:03.574Z,97.43
2022-12-28T04:51:31.902Z,96.89
2022-12-28T04:53:59.556Z,95.89
2022-12-28T04:56:29.002Z,95.82
2022-12-28T04:58:57.396Z,95.10
2022-12-28T05:01:25.145Z,94.26
2022-12-28T05:03:56.559Z,94.52
2022-12-28T05:06:27.538Z,95.11
2022-12-28T05:08:56.278Z,95.58
2022-12-28T05:11:25.597Z,96.13
2022-12-28T05:13:54.620Z,96.47
2022-12-28T05:16:24.079Z,97.14
2022-12-28T05:18:51.827Z,97.61
2022-12-28T05:21:21.007Z,97.72
2022-12-28T05:23:49.631Z,97.96
2022-12-28T05:26:20.017Z,98.77
2022-12-28T05:28:48.123Z,99.71
2022-12-28T05:31:19.212Z,100.00
2022-12-28T07:48:21.429Z,100.00
2022-12-28T07:57:05.399Z,100.00
2022-12-28T07:59:34.964Z,100.00
2022-12-28T08:05:03.149Z,100.00
2022-12-28T08:10:34.636Z,100.00
2022-12-28T09:10:24.274Z,100.00
2022-12-28T09:54:22.898Z,100.00
2022-12-28T10:09:05.542Z,100.00
2022-12-28T10:11:38.214Z,100.00
2022-12-28T10:14:27.194Z,100.00
2022-12-28T10:19:59.595Z,100.00
2022-12-28T10:38:14.449Z,100.00
2022-12-28T12:01:57.935Z,100.00
2022-12-28T12:04:45.189Z,100.00
2022-12-28T12:10:27.988Z,100.00
2022-12-28T12:16:04.168Z,100.00
2022-12-28T12:18:41.320Z,100.00
2022-12-28T12:21:15.550Z,100.00
2022-12-28T12:23:47.285Z,100.00
2022-12-28T12:26:20.857Z,100.00
2022-12-28T12:28:50.236Z,100.00
2022-12-28T12:31:26.077Z,99.54
2022-12-28T12:33:59.501Z,98.96
2022-12-28T12:36:37.988Z,98.81
2022-12-28T12:39:19.095Z,98.39
2022-12-28T12:41:56.113Z,98.75
2022-12-28T12:44:34.253Z,98.49
2022-12-28T12:47:19.370Z,99.01
2022-12-28T12:50:18.670Z,99.48
2022-12-28T12:53:00.966Z,98.80
2022-12-28T12:55:41.384Z,97.36
2022-12-28T12:58:19.514Z,97.47
2022-12-28T13:00:53.140Z,97.11
2022-12-28T13:03:28.443Z,97.43
2022-12-28T13:05:58.828Z,96.01
2022-12-28T13:08:27.844Z,97.40
2022-12-28T13:10:56.156Z,97.17
2022-12-28T13:13:30.221Z,96.99
2022-12-28T13:16:02.967Z,96.15
2022-12-28T13:18:46.456Z,95.93
2022-12-28T13:21:20.472Z,96.57
2022-12-28T13:23:48.533Z,97.33
2022-12-28T13:26:17.276Z,98.00
2022-12-28T13:28:50.965Z,97.24
2022-12-28T13:31:20.228Z,97.44
2022-12-28T13:33:58.444Z,95.39
2022-12-28T13:36:27.768Z,95.54
2022-12-28T13:39:09.717Z,95.81
2022-12-28T13:41:38.408Z,97.25
2022-12-28T13:44:17.275Z,97.33
2022-12-28T13:46:47.970Z,96.38
2022-12-28T13:49:15.556Z,96.48
2022-12-28T13:51:49.739Z,96.88
2022-12-28T13:54:20.574Z,96.98
2022-12-28T13:56:48.125Z,95.98
2022-12-28T13:59:18.068Z,94.80
2022-12-28T14:01:49.611Z,95.44
2022-12-28T14:07:13.564Z,94.03
2022-12-28T14:09:41.232Z,95.33
2022-12-28T14:12:09.108Z,93.95
2022-12-28T14:14:36.763Z,93.38
2022-12-28T14:17:04.448Z,93.85
2022-12-28T14:19:32.072Z,94.53
2022-12-28T14:21:59.620Z,94.83
2022-12-28T14:24:28.471Z,96.13
2022-12-28T14:26:58.553Z,96.59
2022-12-28T14:56:44.718Z,100.00
2022-12-28T15:17:44.280Z,98.35
2022-12-28T15:20:14.452Z,97.79
2022-12-28T15:22:42.467Z,97.56
2022-12-28T15:25:11.480Z,97.85
2022-12-28T15:27:39.948Z,95.68
2022-12-28T15:30:11.927Z,97.40
2022-12-28T15:32:42.348Z,96.68
2022-12-28T15:35:10.362Z,96.78
2022-12-28T15:37:39.892Z,95.23
2022-12-28T15:40:08.899Z,93.64
2022-12-28T15:42:40.286Z,95.28
2022-12-28T15:45:12.734Z,94.68
2022-12-28T15:47:41.447Z,95.02
2022-12-28T15:50:10.524Z,94.41
2022-12-28T15:52:39.756Z,94.24
2022-12-28T15:55:07.982Z,93.91
2022-12-28T15:57:35.577Z,93.25
2022-12-28T16:00:03.961Z,93.88
2022-12-28T16:02:32.530Z,92.66
2022-12-28T16:05:00.303Z,92.37
2022-12-28T16:07:28.188Z,91.92
2022-12-28T16:09:57.172Z,91.67
2022-12-28T16:12:24.845Z,91.97
2022-12-28T16:14:52.661Z,91.71
2022-12-28T16:17:20.469Z,92.30
2022-12-28T16:19:48.029Z,90.74
2022-12-28T16:22:15.680Z,90.51
2022-12-28T16:24:43.409Z,91.09
2022-12-28T16:27:12.284Z,90.46
2022-12-28T16:29:40.052Z,91.65
2022-12-28T16:32:07.719Z,91.16
2022-12-28T16:34:35.407Z,91.18
2022-12-28T16:37:03.031Z,91.10
2022-12-28T16:39:31.090Z,90.50
2022-12-28T16:41:59.388Z,90.48
2022-12-28T16:44:29.330Z,90.27
2022-12-28T16:46:58.204Z,90.21
2022-12-28T16:49:25.955Z,90.46
2022-12-28T16:51:53.502Z,90.10
2022-12-28T16:54:23.268Z,90.33
2022-12-28T16:56:51.786Z,90.49
2022-12-28T16:59:21.169Z,88.79
2022-12-28T17:01:50.317Z,89.06
2022-12-28T17:04:17.895Z,89.33
2022-12-28T17:06:46.471Z,90.54
2022-12-28T17:09:14.728Z,90.13
2022-12-28T17:11:42.550Z,89.16
2022-12-28T17:14:13.149Z,88.63
2022-12-28T17:16:40.819Z,89.15
2022-12-28T17:19:09.686Z,89.06
2022-12-28T17:21:37.199Z,88.60
2022-12-28T17:24:05.599Z,88.47
2022-12-28T17:26:33.149Z,88.82
2022-12-28T17:29:00.885Z,88.40
2022-12-28T17:31:28.711Z,88.58
2022-12-28T17:33:58.540Z,88.07
2022-12-28T17:36:27.841Z,87.95
2022-12-28T17:38:55.373Z,87.36
2022-12-28T17:41:24.411Z,87.42
2022-12-28T17:43:53.929Z,86.84
2022-12-28T17:46:21.825Z,88.56
2022-12-28T17:48:49.535Z,86.64
2022-12-28T17:51:17.141Z,87.62
2022-12-28T17:53:46.023Z,87.54
2022-12-28T17:56:15.615Z,87.10
2022-12-28T17:58:44.599Z,86.43
2022-12-28T18:01:13.240Z,86.74
2022-12-28T18:03:41.373Z,87.16
2022-12-28T18:06:09.045Z,86.93
2022-12-28T18:08:36.821Z,86.40
2022-12-28T18:11:08.442Z,87.15
2022-12-28T18:13:36.126Z,85.36
2022-12-28T18:17:40.921Z,86.07
2022-12-28T18:20:09.827Z,85.28
2022-12-28T18:22:37.338Z,85.86
2022-12-28T18:26:47.688Z,84.61
2022-12-28T18:29:15.194Z,84.07
2022-12-28T18:31:42.688Z,85.56
2022-12-28T18:34:10.195Z,84.98
2022-12-28T18:36:37.647Z,84.54
2022-12-28T18:39:05.339Z,84.51
2022-12-28T18:41:34.373Z,85.03
2022-12-28T18:44:05.010Z,86.24
2022-12-28T18:46:32.612Z,87.30
2022-12-28T18:49:01.550Z,88.94
2022-12-28T18:51:29.113Z,87.87
2022-12-28T18:53:56.612Z,89.91
2022-12-28T18:56:24.171Z,90.41
2022-12-28T18:58:53.327Z,91.37
2022-12-28T19:06:37.515Z,93.21
2022-12-28T19:09:06.207Z,93.88
2022-12-28T19:11:34.431Z,94.32
2022-12-28T19:14:02.928Z,95.03
2022-12-28T19:16:31.783Z,95.72
2022-12-28T19:19:00.311Z,96.65
2022-12-28T20:22:11.861Z,100.00
2022-12-28T21:12:41.147Z,100.00
2022-12-28T21:21:25.776Z,100.00
2022-12-28T21:26:56.515Z,100.00
2022-12-28T21:29:26.191Z,100.00
2022-12-28T21:31:54.376Z,100.00
2022-12-28T21:34:22.579Z,100.00
2022-12-28T21:36:51.528Z,100.00
2022-12-28T21:39:19.371Z,100.00
2022-12-28T21:41:49.877Z,100.00
2022-12-28T21:44:19.908Z,100.00
2022-12-28T21:46:47.694Z,100.00
2022-12-28T21:49:15.279Z,100.00
2022-12-28T21:51:42.869Z,100.00
2022-12-28T21:54:13.619Z,100.00
2022-12-28T21:56:42.240Z,100.00
2022-12-28T21:59:11.079Z,100.00
2022-12-28T22:01:57.004Z,100.00
2022-12-28T22:04:42.559Z,100.00
2022-12-28T22:07:11.679Z,100.00
2022-12-28T22:09:58.481Z,100.00
2022-12-28T22:12:36.135Z,100.00
2022-12-28T22:15:30.576Z,100.00
2022-12-28T22:17:59.980Z,100.00
2022-12-28T22:20:28.333Z,100.00
2022-12-28T22:22:56.862Z,100.00
2022-12-28T22:25:26.171Z,100.00
2022-12-28T22:27:53.775Z,100.00
2022-12-28T22:30:21.432Z,100.00
2022-12-28T22:32:49.020Z,100.00
2022-12-28T22:35:18.634Z,100.00
2022-12-28T22:37:46.350Z,100.00
2022-12-28T22:40:14.409Z,100.00
2022-12-28T22:42:44.453Z,99.63
2022-12-28T22:45:12.953Z,99.49
2022-12-28T22:47:41.076Z,98.52
2022-12-28T22:50:11.076Z,99.32
2022-12-28T22:52:38.608Z,98.75
2022-12-28T22:55:06.878Z,98.42
2022-12-28T22:57:34.876Z,98.25
2022-12-28T23:00:04.359Z,97.86
2022-12-28T23:02:32.033Z,98.05
2022-12-28T23:04:59.859Z,97.26
2022-12-28T23:07:27.461Z,96.83
2022-12-28T23:09:54.978Z,98.14
2022-12-28T23:12:22.558Z,98.76
2022-12-28T23:15:07.965Z,97.77
2022-12-28T23:17:37.060Z,97.31
2022-12-28T23:20:22.423Z,96.82
2022-12-28T23:23:07.018Z,97.03
2022-12-28T23:25:52.166Z,97.45
2022-12-28T23:28:19.677Z,97.04
2022-12-28T23:30:49.006Z,97.32
2022-12-28T23:33:18.645Z,96.75
2022-12-28T23:35:46.302Z,97.49
2022-12-28T23:38:13.807Z,97.66
2022-12-28T23:40:42.037Z,98.26
2022-12-28T23:43:09.620Z,97.59
2022-12-28T23:45:37.352Z,96.50
2022-12-28T23:48:05.631Z,96.22
2022-12-28T23:50:34.582Z,96.86
2022-12-28T23:53:02.097Z,97.14
2022-12-28T23:55:29.900Z,97.11
2022-12-28T23:57:57.446Z,97.20
